createdAt,value
2022-12-29T00:01:34.765Z,0.00
2022-12-29T00:02:34.837Z,0.00
2022-12-29T00:04:38.724Z,0.00
2022-12-29T00:05:38.726Z,0.00
2022-12-29T00:07:42.701Z,0.00
2022-12-29T00:08:42.757Z,0.00
2022-12-29T00:09:42.676Z,0.00
2022-12-29T00:10:42.668Z,0.00
2022-12-29T00:11:42.668Z,0.00
2022-12-29T00:12:42.650Z,0.00
2022-12-29T00:13:42.656Z,0.00
2022-12-29T00:14:42.652Z,0.00
2022-12-29T00:15:42.702Z,0.00
2022-12-29T00:16:42.629Z,0.00
2022-12-29T00:17:42.619Z,0.00
2022-12-29T00:18:42.620Z,0.00
2022-12-29T00:19:42.604Z,0.00
2022-12-29T00:20:42.605Z,0.00
2022-12-29T00:21:42.599Z,0.00
2022-12-29T00:22:42.591Z,0.00
2022-12-29T00:23:42.696Z,0.00
2022-12-29T00:24:42.588Z,0.00
2022-12-29T00:25:42.589Z,0.00
2022-12-29T00:26:42.578Z,0.00
2022-12-29T00:27:42.573Z,0.00
2022-12-29T00:28:42.553Z,0.00
2022-12-29T00:29:42.543Z,0.00
2022-12-29T00:30:42.565Z,0.00
2022-12-29T00:31:42.573Z,0.00
2022-12-29T00:32:42.536Z,0.00
2022-12-29T00:33:42.547Z,0.00
2022-12-29T00:34:42.518Z,0.00
2022-12-29T00:35:42.508Z,0.00
2022-12-29T00:36:42.506Z,0.00
2022-12-29T00:37:42.535Z,0.00
2022-12-29T00:38:42.488Z,0.00
2022-12-29T00:39:42.485Z,0.00
2022-12-29T00:40:42.495Z,0.00
2022-12-29T00:41:42.485Z,0.00
2022-12-29T00:42:42.470Z,0.00
2022-12-29T00:43:42.461Z,0.00
2022-12-29T00:44:42.462Z,0.00
2022-12-29T00:45:42.463Z,0.00
2022-12-29T00:46:42.457Z,0.00
2022-12-29T00:47:42.451Z,0.00
2022-12-29T00:48:42.452Z,0.00
2022-12-29T00:49:42.417Z,0.00
2022-12-29T00:50:42.432Z,0.00
2022-12-29T00:51:42.430Z,0.00
2022-12-29T00:52:42.400Z,0.00
2022-12-29T00:53:42.401Z,0.00
2022-12-29T00:54:42.400Z,0.00
2022-12-29T00:55:42.385Z,0.00
2022-12-29T00:56:42.394Z,0.00
2022-12-29T00:57:42.411Z,0.00
2022-12-29T00:58:42.373Z,0.00
2022-12-29T00:59:42.368Z,0.00
2022-12-29T01:00:42.416Z,0.00
2022-12-29T01:01:42.461Z,0.00
2022-12-29T01:02:42.502Z,0.00
2022-12-29T01:03:42.332Z,0.00
2022-12-29T01:04:42.331Z,0.00
2022-12-29T01:05:42.331Z,0.00
2022-12-29T01:06:42.327Z,0.00
2022-12-29T01:07:42.331Z,0.00
2022-12-29T01:08:42.311Z,0.00
2022-12-29T01:09:42.313Z,0.00
2022-12-29T01:10:42.297Z,0.00
2022-12-29T01:11:42.310Z,0.00
2022-12-29T01:12:42.364Z,0.00
2022-12-29T01:13:42.313Z,0.00
2022-12-29T01:14:42.284Z,0.00
2022-12-29T01:15:42.279Z,0.00
2022-12-29T01:16:42.284Z,0.00
2022-12-29T01:17:42.248Z,0.00
2022-12-29T01:18:42.273Z,0.00
2022-12-29T01:19:42.246Z,0.00
2022-12-29T01:20:42.250Z,0.00
2022-12-29T01:21:42.231Z,0.00
2022-12-29T01:22:42.227Z,0.00
2022-12-29T01:23:42.226Z,0.00
2022-12-29T01:24:42.209Z,0.00
2022-12-29T01:25:42.205Z,0.00
2022-12-29T01:26:42.206Z,0.00
2022-12-29T01:27:42.200Z,0.00
2022-12-29T01:28:42.213Z,0.00
2022-12-29T01:29:42.218Z,0.00
2022-12-29T01:30:42.181Z,0.00
2022-12-29T01:31:42.224Z,0.00
2022-12-29T01:32:42.172Z,0.00
2022-12-29T01:33:42.154Z,0.00
2022-12-29T01:34:42.156Z,0.00
2022-12-29T01:35:42.142Z,0.00
2022-12-29T01:36:42.144Z,0.00
2022-12-29T01:37:42.133Z,0.00
2022-12-29T01:38:42.125Z,0.00
2022-12-29T01:39:42.115Z,0.00
2022-12-29T01:40:42.118Z,0.00
2022-12-29T01:41:42.116Z,0.00
2022-12-29T01:42:42.154Z,0.00
2022-12-29T01:43:42.096Z,0.00
2022-12-29T01:44:42.090Z,0.00
2022-12-29T01:45:42.145Z,0.00
2022-12-29T01:46:42.087Z,0.00
2022-12-29T01:47:42.074Z,0.00
2022-12-29T01:48:42.064Z,0.00
2022-12-29T01:49:42.058Z,0.00
2022-12-29T01:50:42.072Z,0.00
2022-12-29T01:51:42.048Z,0.00
2022-12-29T01:52:42.056Z,0.00
2022-12-29T01:53:42.043Z,0.00
2022-12-29T01:54:42.030Z,0.00
2022-12-29T01:55:42.025Z,0.00
2022-12-29T01:56:42.019Z,0.00
2022-12-29T01:57:42.029Z,0.00
2022-12-29T01:58:42.012Z,0.00
2022-12-29T01:59:42.013Z,0.00
2022-12-29T02:00:42.014Z,0.00
2022-12-29T02:01:42.061Z,0.00
2022-12-29T02:02:42.295Z,0.00
2022-12-29T02:03:42.045Z,0.00
2022-12-29T02:04:41.987Z,0.00
2022-12-29T02:05:41.958Z,0.00
2022-12-29T02:06:41.955Z,0.00
2022-12-29T02:07:41.956Z,0.00
2022-12-29T02:08:41.952Z,0.00
2022-12-29T02:09:41.939Z,0.00
2022-12-29T02:10:41.954Z,0.00
2022-12-29T02:11:41.966Z,0.00
2022-12-29T02:12:41.912Z,0.00
2022-12-29T02:13:41.909Z,0.00
2022-12-29T02:14:41.908Z,0.00
2022-12-29T02:15:41.908Z,0.00
2022-12-29T02:16:41.930Z,0.00
2022-12-29T02:17:41.914Z,0.00
2022-12-29T02:18:41.887Z,0.00
2022-12-29T02:19:41.873Z,0.00
2022-12-29T02:20:41.867Z,0.00
2022-12-29T02:21:41.882Z,0.00
2022-12-29T02:22:41.874Z,0.00
2022-12-29T02:23:41.848Z,0.00
2022-12-29T02:24:41.843Z,0.00
2022-12-29T02:25:41.835Z,0.00
2022-12-29T02:26:41.846Z,0.00
2022-12-29T02:27:41.846Z,0.00
2022-12-29T02:28:41.822Z,0.00
2022-12-29T02:29:41.824Z,0.00
2022-12-29T02:30:41.807Z,0.00
2022-12-29T02:31:41.881Z,0.00
2022-12-29T02:32:41.793Z,0.00
2022-12-29T02:33:41.806Z,0.00
2022-12-29T02:34:41.783Z,0.00
2022-12-29T02:35:41.780Z,0.00
2022-12-29T02:36:41.771Z,0.00
2022-12-29T02:37:41.768Z,0.00
2022-12-29T02:38:41.758Z,0.00
2022-12-29T02:39:41.757Z,0.00
2022-12-29T02:40:41.742Z,0.00
2022-12-29T02:41:41.747Z,0.00
2022-12-29T02:42:41.748Z,0.00
2022-12-29T02:43:41.735Z,0.00
2022-12-29T02:44:41.720Z,0.00
2022-12-29T02:45:41.757Z,0.00
2022-12-29T02:46:41.720Z,0.00
2022-12-29T02:47:41.707Z,0.00
2022-12-29T02:48:41.694Z,0.00
2022-12-29T02:49:41.689Z,0.00
2022-12-29T02:50:41.689Z,0.00
2022-12-29T02:51:41.685Z,0.00
2022-12-29T02:52:41.670Z,0.00
2022-12-29T02:53:41.677Z,0.00
2022-12-29T02:54:41.662Z,0.00
2022-12-29T02:55:41.666Z,0.00
2022-12-29T02:56:41.656Z,0.00
2022-12-29T02:57:41.645Z,0.00
2022-12-29T02:58:41.647Z,0.00
2022-12-29T02:59:41.632Z,0.00
2022-12-29T03:00:41.620Z,0.00
2022-12-29T03:01:41.662Z,0.00
2022-12-29T03:02:41.783Z,0.00
2022-12-29T03:03:41.627Z,0.00
2022-12-29T03:04:41.607Z,0.00
2022-12-29T03:05:41.617Z,0.00
2022-12-29T03:06:41.585Z,0.00
2022-12-29T03:07:41.589Z,0.00
2022-12-29T03:08:41.591Z,0.00
2022-12-29T03:09:41.576Z,0.00
2022-12-29T03:10:41.584Z,0.00
2022-12-29T03:11:41.592Z,0.00
2022-12-29T03:12:41.559Z,0.00
2022-12-29T03:13:41.558Z,0.00
2022-12-29T03:14:41.535Z,0.00
2022-12-29T03:15:41.537Z,0.00
2022-12-29T03:16:41.557Z,0.00
2022-12-29T03:17:41.565Z,0.00
2022-12-29T03:18:41.538Z,0.00
2022-12-29T03:19:41.567Z,0.00
2022-12-29T03:20:41.505Z,0.00
2022-12-29T03:21:41.516Z,0.00
2022-12-29T03:22:41.518Z,0.00
2022-12-29T03:23:41.513Z,0.00
2022-12-29T03:24:41.491Z,0.00
2022-12-29T03:25:41.502Z,0.00
2022-12-29T03:26:41.471Z,0.00
2022-12-29T03:27:41.481Z,0.00
2022-12-29T03:28:41.469Z,0.00
2022-12-29T03:29:41.461Z,0.00
2022-12-29T03:30:41.509Z,0.00
2022-12-29T03:31:41.450Z,0.00
2022-12-29T03:32:41.441Z,0.00
2022-12-29T03:33:41.433Z,0.00
2022-12-29T03:34:41.457Z,0.00
2022-12-29T03:35:41.435Z,0.00
2022-12-29T03:36:41.430Z,0.00
2022-12-29T03:37:41.419Z,0.00
2022-12-29T03:38:41.420Z,0.00
2022-12-29T03:39:41.404Z,0.00
2022-12-29T03:40:41.392Z,0.00
2022-12-29T03:41:41.434Z,0.00
2022-12-29T03:42:41.388Z,0.00
2022-12-29T03:43:41.388Z,0.00
2022-12-29T03:44:41.394Z,0.00
2022-12-29T03:45:41.379Z,0.00
2022-12-29T03:46:41.428Z,0.00
2022-12-29T03:47:41.357Z,0.00
2022-12-29T03:48:41.361Z,0.00
2022-12-29T03:49:41.347Z,0.00
2022-12-29T03:50:41.349Z,0.00
2022-12-29T03:51:41.344Z,0.00
2022-12-29T03:52:41.332Z,0.00
2022-12-29T03:53:41.376Z,0.00
2022-12-29T03:54:41.323Z,0.00
2022-12-29T03:55:41.357Z,0.00
2022-12-29T03:56:41.313Z,0.00
2022-12-29T03:57:41.324Z,0.00
2022-12-29T03:58:41.298Z,0.00
2022-12-29T03:59:41.290Z,0.00
2022-12-29T04:00:41.295Z,0.00
2022-12-29T04:01:41.436Z,0.00
2022-12-29T04:02:41.524Z,0.00
2022-12-29T04:03:41.353Z,0.00
2022-12-29T04:04:41.294Z,0.00
2022-12-29T04:05:41.263Z,0.00
2022-12-29T04:06:41.250Z,0.00
2022-12-29T04:07:41.267Z,0.00
2022-12-29T04:08:41.271Z,0.00
2022-12-29T04:09:41.233Z,0.00
2022-12-29T04:10:41.260Z,0.00
2022-12-29T04:11:41.227Z,0.00
2022-12-29T04:12:41.218Z,0.00
2022-12-29T04:13:41.212Z,0.00
2022-12-29T04:14:41.209Z,0.00
2022-12-29T04:15:41.246Z,0.00
2022-12-29T04:16:41.228Z,0.00
2022-12-29T04:17:41.196Z,0.00
2022-12-29T04:18:41.198Z,0.00
2022-12-29T04:19:41.182Z,0.00
2022-12-29T04:20:41.179Z,0.00
2022-12-29T04:21:41.178Z,0.00
2022-12-29T04:22:41.169Z,0.00
2022-12-29T04:23:41.169Z,0.00
2022-12-29T04:24:41.171Z,0.00
2022-12-29T04:25:41.149Z,0.00
2022-12-29T04:26:41.157Z,0.00
2022-12-29T04:27:41.134Z,0.00
2022-12-29T04:28:41.137Z,0.00
2022-12-29T04:29:41.124Z,0.00
2022-12-29T04:30:41.128Z,0.00
2022-12-29T04:31:41.260Z,0.00
2022-12-29T04:32:41.113Z,0.00
2022-12-29T04:33:41.148Z,0.00
2022-12-29T04:34:41.100Z,0.00
2022-12-29T04:35:41.121Z,0.00
2022-12-29T04:36:41.086Z,0.00
2022-12-29T04:37:41.093Z,0.00
2022-12-29T04:38:41.079Z,0.00
2022-12-29T04:39:41.075Z,0.00
2022-12-29T04:40:41.060Z,0.00
2022-12-29T04:41:41.063Z,0.00
2022-12-29T04:42:41.060Z,0.00
2022-12-29T04:43:41.053Z,0.00
2022-12-29T04:44:45.041Z,0.00
2022-12-29T04:45:41.047Z,0.00
2022-12-29T04:46:41.081Z,0.00
2022-12-29T04:47:41.052Z,0.00
2022-12-29T04:48:41.099Z,0.00
2022-12-29T04:49:41.031Z,0.00
2022-12-29T04:50:41.014Z,0.00
2022-12-29T04:51:41.022Z,0.00
2022-12-29T04:52:40.994Z,0.00
2022-12-29T04:53:41.012Z,0.00
2022-12-29T04:54:41.011Z,0.00
2022-12-29T04:55:40.990Z,0.00
2022-12-29T04:56:40.992Z,0.00
2022-12-29T04:57:40.996Z,0.00
2022-12-29T04:58:40.968Z,0.00
2022-12-29T04:59:40.971Z,0.00
2022-12-29T05:00:40.955Z,0.00
2022-12-29T05:01:41.033Z,0.00
2022-12-29T05:02:41.163Z,0.00
2022-12-29T05:03:41.083Z,0.00
2022-12-29T05:04:40.938Z,0.00
2022-12-29T05:05:40.942Z,0.00
2022-12-29T05:06:40.928Z,0.00
2022-12-29T05:07:40.924Z,0.00
2022-12-29T05:08:40.918Z,0.00
2022-12-29T05:09:40.912Z,0.00
2022-12-29T05:10:40.941Z,0.00
2022-12-29T05:11:40.928Z,0.00
2022-12-29T05:12:40.936Z,0.00
2022-12-29T05:13:40.900Z,0.00
2022-12-29T05:14:40.910Z,0.00
2022-12-29T05:15:40.943Z,0.00
2022-12-29T05:16:40.942Z,0.00
2022-12-29T05:17:40.868Z,0.00
2022-12-29T05:18:40.864Z,0.00
2022-12-29T05:19:40.862Z,0.00
2022-12-29T05:20:40.846Z,0.00
2022-12-29T05:21:40.866Z,0.00
2022-12-29T05:22:40.847Z,0.00
2022-12-29T05:23:40.847Z,0.00
2022-12-29T05:24:40.848Z,0.00
2022-12-29T05:25:40.837Z,0.00
2022-12-29T05:26:40.814Z,0.00
2022-12-29T05:27:40.823Z,0.00
2022-12-29T05:28:40.835Z,0.00
2022-12-29T05:29:40.810Z,0.00
2022-12-29T05:30:40.828Z,0.00
2022-12-29T05:31:40.850Z,0.00
2022-12-29T05:32:40.786Z,0.00
2022-12-29T05:33:40.789Z,0.00
2022-12-29T05:34:40.793Z,0.00
2022-12-29T05:35:40.769Z,0.00
2022-12-29T05:36:40.769Z,0.00
2022-12-29T05:37:40.755Z,0.00
2022-12-29T05:38:40.779Z,4.00
2022-12-29T05:39:40.768Z,0.00
2022-12-29T05:40:40.742Z,0.00
2022-12-29T05:41:40.742Z,4.00
2022-12-29T05:42:40.750Z,4.00
2022-12-29T05:43:40.774Z,0.00
2022-12-29T05:44:40.737Z,0.00
2022-12-29T05:45:40.725Z,0.00
2022-12-29T05:46:40.826Z,0.00
2022-12-29T05:47:40.720Z,0.00
2022-12-29T05:48:40.722Z,0.00
2022-12-29T05:49:40.697Z,0.00
2022-12-29T05:50:40.690Z,0.00
2022-12-29T05:51:40.697Z,0.00
2022-12-29T05:52:40.695Z,0.00
2022-12-29T05:53:40.695Z,0.00
2022-12-29T05:54:40.669Z,0.00
2022-12-29T05:55:46.596Z,0.00
2022-12-29T05:56:40.678Z,0.00
2022-12-29T05:57:40.672Z,0.00
2022-12-29T05:58:40.669Z,0.00
2022-12-29T05:59:47.830Z,0.00
2022-12-29T06:01:44.813Z,0.00
2022-12-29T06:02:44.918Z,0.00
2022-12-29T06:04:48.634Z,0.00
2022-12-29T06:05:48.610Z,0.00
2022-12-29T06:07:52.635Z,0.00
2022-12-29T06:08:52.594Z,0.00
2022-12-29T06:10:46.037Z,0.00
2022-12-29T06:11:46.009Z,0.00
2022-12-29T06:13:50.037Z,0.00
2022-12-29T06:14:49.999Z,0.00
2022-12-29T06:16:43.244Z,0.00
2022-12-29T06:17:43.090Z,0.00
2022-12-29T06:19:47.069Z,0.00
2022-12-29T06:20:47.067Z,0.00
2022-12-29T06:22:51.052Z,0.00
2022-12-29T06:23:51.045Z,0.00
2022-12-29T06:25:55.089Z,0.00
2022-12-29T06:26:55.037Z,0.00
2022-12-29T06:28:59.059Z,0.00
2022-12-29T06:29:59.027Z,0.00
2022-12-29T06:32:03.039Z,0.00
2022-12-29T06:33:02.985Z,0.00
2022-12-29T06:35:07.472Z,0.00
2022-12-29T06:36:06.958Z,0.00
2022-12-29T06:38:10.975Z,0.00
2022-12-29T06:39:10.948Z,0.00
2022-12-29T06:41:14.942Z,0.00
2022-12-29T06:42:14.919Z,0.00
2022-12-29T06:44:18.936Z,4.00
2022-12-29T06:45:18.899Z,4.00
2022-12-29T06:47:22.868Z,4.00
2022-12-29T06:48:22.857Z,4.00
2022-12-29T06:50:15.773Z,0.00
2022-12-29T06:51:15.754Z,4.00
2022-12-29T06:53:19.729Z,4.00
2022-12-29T06:54:19.719Z,8.00
2022-12-29T06:56:23.708Z,8.00
2022-12-29T06:57:23.685Z,8.00
2022-12-29T06:59:28.170Z,16.00
2022-12-29T07:00:28.160Z,16.00
2022-12-29T07:01:28.311Z,16.00
2022-12-29T07:02:28.386Z,12.00
2022-12-29T07:03:28.228Z,12.00
2022-12-29T07:04:28.155Z,16.00
2022-12-29T07:05:28.128Z,16.00
2022-12-29T07:06:28.135Z,20.00
2022-12-29T07:07:28.122Z,20.00
2022-12-29T07:08:28.119Z,24.00
2022-12-29T07:09:28.118Z,32.00
2022-12-29T07:10:28.116Z,44.00
2022-12-29T07:11:28.096Z,52.00
2022-12-29T07:12:28.104Z,64.00
2022-12-29T07:13:28.088Z,80.00
2022-12-29T07:14:28.087Z,100.00
2022-12-29T07:15:28.075Z,124.00
2022-12-29T07:16:28.140Z,140.00
2022-12-29T07:17:28.065Z,160.00
2022-12-29T07:18:28.118Z,176.00
2022-12-29T07:19:28.061Z,188.00
2022-12-29T07:20:28.077Z,196.00
2022-12-29T07:21:28.050Z,188.00
2022-12-29T07:22:28.052Z,200.00
2022-12-29T07:23:28.046Z,224.00
2022-12-29T07:24:28.036Z,252.00
2022-12-29T07:25:28.030Z,276.00
2022-12-29T07:26:32.894Z,284.00
2022-12-29T07:27:28.012Z,288.00
2022-12-29T07:28:28.012Z,292.00
2022-12-29T07:29:28.003Z,296.00
2022-12-29T07:30:28.103Z,300.00
2022-12-29T07:31:28.075Z,292.00
2022-12-29T07:32:28.000Z,272.00
2022-12-29T07:33:27.999Z,280.00
2022-12-29T07:34:27.998Z,296.00
2022-12-29T07:35:27.976Z,344.00
2022-12-29T07:36:33.993Z,388.00
2022-12-29T07:37:27.971Z,412.00
2022-12-29T07:38:27.960Z,432.00
2022-12-29T07:39:27.960Z,496.00
2022-12-29T07:40:28.016Z,600.00
2022-12-29T07:41:27.952Z,696.00
2022-12-29T07:42:27.950Z,812.00
2022-12-29T07:43:27.960Z,952.00
2022-12-29T07:44:27.939Z,1048.00
2022-12-29T07:45:27.931Z,1132.00
2022-12-29T07:46:55.133Z,1184.00
2022-12-29T07:47:27.921Z,1220.00
2022-12-29T07:48:27.908Z,1272.00
2022-12-29T07:49:27.910Z,1388.00
2022-12-29T07:50:27.909Z,1468.00
2022-12-29T07:51:27.911Z,1452.00
2022-12-29T07:52:27.890Z,1372.00
2022-12-29T07:53:27.888Z,1252.00
2022-12-29T07:54:27.880Z,1148.00
2022-12-29T07:55:27.876Z,1004.00
2022-12-29T07:56:27.869Z,880.00
2022-12-29T07:57:31.782Z,792.00
2022-12-29T07:58:27.859Z,740.00
2022-12-29T07:59:27.865Z,740.00
2022-12-29T08:00:27.858Z,760.00
2022-12-29T08:01:27.935Z,740.00
2022-12-29T08:02:28.110Z,756.00
2022-12-29T08:03:27.887Z,736.00
2022-12-29T08:04:27.840Z,712.00
2022-12-29T08:05:27.833Z,684.00
2022-12-29T08:06:27.829Z,624.00
2022-12-29T08:07:27.830Z,644.00
2022-12-29T08:08:27.821Z,732.00
2022-12-29T08:09:27.881Z,796.00
2022-12-29T08:10:27.904Z,776.00
2022-12-29T08:11:27.807Z,792.00
2022-12-29T08:12:27.803Z,868.00
2022-12-29T08:13:27.799Z,1016.00
2022-12-29T08:14:27.788Z,980.00
2022-12-29T08:15:32.323Z,1128.00
2022-12-29T08:16:27.808Z,1640.00
2022-12-29T08:17:27.777Z,1948.00
2022-12-29T08:18:27.761Z,1700.00
2022-12-29T08:19:27.771Z,1276.00
2022-12-29T08:20:27.776Z,912.00
2022-12-29T08:21:27.775Z,660.00
2022-12-29T08:22:27.755Z,544.00
2022-12-29T08:23:27.745Z,520.00
2022-12-29T08:24:27.731Z,532.00
2022-12-29T08:25:27.763Z,512.00
2022-12-29T08:26:27.737Z,452.00
2022-12-29T08:27:27.733Z,436.00
2022-12-29T08:28:27.736Z,480.00
2022-12-29T08:29:27.733Z,548.00
2022-12-29T08:30:27.726Z,712.00
2022-12-29T08:31:27.863Z,896.00
2022-12-29T08:32:27.725Z,624.00
2022-12-29T08:33:27.701Z,528.00
2022-12-29T08:34:27.706Z,744.00
2022-12-29T08:35:27.687Z,936.00
2022-12-29T08:36:27.688Z,860.00
2022-12-29T08:37:31.217Z,616.00
2022-12-29T08:38:27.775Z,508.00
2022-12-29T08:39:27.700Z,588.00
2022-12-29T08:40:27.677Z,820.00
2022-12-29T08:41:27.658Z,1104.00
2022-12-29T08:42:27.662Z,1148.00
2022-12-29T08:43:27.652Z,944.00
2022-12-29T08:44:27.654Z,1000.00
2022-12-29T08:45:27.710Z,1264.00
2022-12-29T08:46:27.688Z,1564.00
2022-12-29T08:47:27.637Z,1856.00
2022-12-29T08:48:27.634Z,2016.00
2022-12-29T08:49:27.666Z,2084.00
2022-12-29T08:50:27.620Z,2208.00
2022-12-29T08:51:27.635Z,2428.00
2022-12-29T08:52:27.623Z,2448.00
2022-12-29T08:53:27.618Z,2508.00
2022-12-29T08:54:27.610Z,3140.00
2022-12-29T08:55:27.600Z,6080.00
2022-12-29T08:56:27.659Z,13388.00
2022-12-29T08:57:27.589Z,3252.00
2022-12-29T08:58:27.584Z,2800.00
2022-12-29T08:59:27.615Z,5064.00
2022-12-29T09:00:27.575Z,7728.00
2022-12-29T09:01:27.689Z,18560.00
2022-12-29T09:02:27.768Z,17312.00
2022-12-29T09:04:03.745Z,13412.00
2022-12-29T09:04:27.736Z,3924.00
2022-12-29T09:05:27.551Z,3376.00
2022-12-29T09:06:27.594Z,4200.00
2022-12-29T09:07:27.564Z,4432.00
2022-12-29T09:08:27.549Z,7004.00
2022-12-29T09:09:27.589Z,7228.00
2022-12-29T09:10:27.576Z,4512.00
2022-12-29T09:11:27.540Z,6016.00
2022-12-29T09:12:32.935Z,6544.00
2022-12-29T09:13:27.560Z,4960.00
2022-12-29T09:14:27.522Z,9844.00
2022-12-29T09:15:27.545Z,11616.00
2022-12-29T09:16:27.588Z,11812.00
2022-12-29T09:17:27.549Z,9148.00
2022-12-29T09:18:27.515Z,9708.00
2022-12-29T09:19:27.503Z,9692.00
2022-12-29T09:20:27.564Z,14048.00
2022-12-29T09:21:27.500Z,19008.00
2022-12-29T09:22:27.494Z,25632.00
2022-12-29T09:23:27.538Z,24544.00
2022-12-29T09:24:27.509Z,18912.00
2022-12-29T09:25:27.486Z,19488.00
2022-12-29T09:26:27.499Z,19840.00
2022-12-29T09:27:27.495Z,16864.00
2022-12-29T09:28:27.489Z,12140.00
2022-12-29T09:29:27.480Z,10496.00
2022-12-29T09:30:27.481Z,9140.00
2022-12-29T09:31:27.535Z,9352.00
2022-12-29T09:32:32.660Z,12144.00
2022-12-29T09:33:27.469Z,11500.00
2022-12-29T09:34:27.525Z,12708.00
2022-12-29T09:35:27.468Z,12888.00
2022-12-29T09:36:27.466Z,3836.00
2022-12-29T09:37:27.476Z,3448.00
2022-12-29T09:38:27.483Z,3120.00
2022-12-29T09:39:27.447Z,3176.00
2022-12-29T09:40:27.481Z,3088.00
2022-12-29T09:41:27.483Z,3096.00
2022-12-29T09:42:27.471Z,3124.00
2022-12-29T09:43:27.447Z,3440.00
2022-12-29T09:44:27.445Z,3140.00
2022-12-29T09:45:27.445Z,3464.00
2022-12-29T09:46:27.504Z,5012.00
2022-12-29T09:47:27.459Z,7512.00
2022-12-29T09:48:27.439Z,8336.00
2022-12-29T09:49:27.473Z,5964.00
2022-12-29T09:50:27.428Z,5652.00
2022-12-29T09:51:27.465Z,4920.00
2022-12-29T09:52:27.468Z,5144.00
2022-12-29T09:53:27.443Z,12852.00
2022-12-29T09:54:27.419Z,5988.00
2022-12-29T09:55:27.454Z,9388.00
2022-12-29T09:56:27.414Z,6556.00
2022-12-29T09:57:27.413Z,4956.00
2022-12-29T09:58:27.414Z,3496.00
2022-12-29T09:59:27.411Z,3244.00
2022-12-29T10:00:27.404Z,3828.00
2022-12-29T10:01:27.539Z,3480.00
2022-12-29T10:02:27.555Z,3316.00
2022-12-29T10:03:27.514Z,3380.00
2022-12-29T10:04:27.396Z,3744.00
2022-12-29T10:05:27.448Z,5288.00
2022-12-29T10:06:27.386Z,3332.00
2022-12-29T10:07:29.962Z,3272.00
2022-12-29T10:08:27.385Z,3440.00
2022-12-29T10:09:27.422Z,3256.00
2022-12-29T10:10:27.370Z,3464.00
2022-12-29T10:11:27.373Z,3604.00
2022-12-29T10:12:27.356Z,4996.00
2022-12-29T10:13:27.395Z,3412.00
2022-12-29T10:14:27.350Z,3288.00
2022-12-29T10:15:27.367Z,3628.00
2022-12-29T10:16:27.419Z,3376.00
2022-12-29T10:17:27.346Z,5384.00
2022-12-29T10:18:27.328Z,5104.00
2022-12-29T10:19:32.973Z,3924.00
2022-12-29T10:20:27.328Z,3504.00
2022-12-29T10:21:27.355Z,3648.00
2022-12-29T10:22:27.348Z,4184.00
2022-12-29T10:23:27.334Z,3904.00
2022-12-29T10:24:27.367Z,3572.00
2022-12-29T10:25:31.221Z,3428.00
2022-12-29T10:26:27.353Z,3200.00
2022-12-29T10:27:27.362Z,3012.00
2022-12-29T10:28:27.318Z,2848.00
2022-12-29T10:29:27.310Z,2756.00
2022-12-29T10:30:27.316Z,2644.00
2022-12-29T10:31:27.346Z,2692.00
2022-12-29T10:32:27.316Z,2636.00
2022-12-29T10:33:27.325Z,2720.00
2022-12-29T10:34:27.322Z,2512.00
2022-12-29T10:35:27.279Z,2396.00
2022-12-29T10:36:27.276Z,2336.00
2022-12-29T10:37:33.456Z,2280.00
2022-12-29T10:38:27.337Z,2200.00
2022-12-29T10:39:27.272Z,2316.00
2022-12-29T10:40:27.272Z,2332.00
2022-12-29T10:41:27.274Z,2368.00
2022-12-29T10:42:27.256Z,2356.00
2022-12-29T10:43:27.269Z,2304.00
2022-12-29T10:44:27.280Z,2272.00
2022-12-29T10:45:27.307Z,2244.00
2022-12-29T10:46:27.314Z,2080.00
2022-12-29T10:47:27.269Z,2020.00
2022-12-29T10:48:31.814Z,1996.00
2022-12-29T10:49:27.239Z,1988.00
2022-12-29T10:50:27.229Z,2224.00
2022-12-29T10:51:27.236Z,2456.00
2022-12-29T10:52:27.240Z,2736.00
2022-12-29T10:53:27.230Z,2980.00
2022-12-29T10:54:27.242Z,2904.00
2022-12-29T10:55:27.207Z,2644.00
2022-12-29T10:56:27.206Z,2452.00
2022-12-29T10:57:27.254Z,2172.00
2022-12-29T10:58:27.204Z,1976.00
2022-12-29T10:59:27.197Z,1924.00
2022-12-29T11:00:27.192Z,1888.00
2022-12-29T11:01:27.284Z,1924.00
2022-12-29T11:02:27.457Z,1980.00
2022-12-29T11:03:27.266Z,1964.00
2022-12-29T11:04:27.235Z,1676.00
2022-12-29T11:05:27.187Z,1588.00
2022-12-29T11:06:27.165Z,1456.00
2022-12-29T11:07:27.779Z,1304.00
2022-12-29T11:08:27.183Z,1272.00
2022-12-29T11:09:41.405Z,1388.00
2022-12-29T11:10:27.152Z,1600.00
2022-12-29T11:11:27.199Z,1708.00
2022-12-29T11:12:27.155Z,1720.00
2022-12-29T11:13:27.143Z,1564.00
2022-12-29T11:14:27.136Z,1344.00
2022-12-29T11:15:27.143Z,1204.00
2022-12-29T11:16:27.151Z,1124.00
2022-12-29T11:17:27.129Z,996.00
2022-12-29T11:18:27.182Z,936.00
2022-12-29T11:19:27.178Z,864.00
2022-12-29T11:20:27.167Z,900.00
2022-12-29T11:21:27.131Z,844.00
2022-12-29T11:22:27.131Z,732.00
2022-12-29T11:23:27.148Z,720.00
2022-12-29T11:24:27.155Z,792.00
2022-12-29T11:25:27.161Z,920.00
2022-12-29T11:26:33.628Z,1164.00
2022-12-29T11:27:27.109Z,1512.00
2022-12-29T11:28:27.083Z,1608.00
2022-12-29T11:29:27.105Z,1484.00
2022-12-29T11:30:27.085Z,1340.00
2022-12-29T11:31:27.120Z,1268.00
2022-12-29T11:32:29.162Z,1152.00
2022-12-29T11:33:27.083Z,1064.00
2022-12-29T11:34:27.104Z,1040.00
2022-12-29T11:35:27.065Z,1032.00
2022-12-29T11:36:27.060Z,1044.00
2022-12-29T11:37:27.044Z,1024.00
2022-12-29T11:38:27.055Z,1052.00
2022-12-29T11:39:27.045Z,1148.00
2022-12-29T11:40:27.042Z,1232.00
2022-12-29T11:41:27.078Z,1220.00
2022-12-29T11:42:27.040Z,1240.00
2022-12-29T11:43:27.137Z,1232.00
2022-12-29T11:44:27.036Z,1192.00
2022-12-29T11:45:27.023Z,1192.00
2022-12-29T11:46:27.139Z,1192.00
2022-12-29T11:47:27.009Z,1272.00
2022-12-29T11:48:27.039Z,1248.00
2022-12-29T11:49:27.018Z,1160.00
2022-12-29T11:50:27.001Z,1108.00
2022-12-29T11:51:27.034Z,1100.00
2022-12-29T11:52:26.990Z,1064.00
2022-12-29T11:53:27.015Z,1000.00
2022-12-29T11:54:26.991Z,996.00
2022-12-29T11:55:27.012Z,1088.00
2022-12-29T11:56:26.986Z,984.00
2022-12-29T11:57:26.975Z,880.00
2022-12-29T11:58:26.979Z,800.00
2022-12-29T11:59:29.721Z,712.00
2022-12-29T12:00:26.964Z,620.00
2022-12-29T12:01:27.005Z,584.00
2022-12-29T12:02:27.037Z,516.00
2022-12-29T12:03:27.119Z,460.00
2022-12-29T12:04:26.987Z,420.00
2022-12-29T12:05:26.930Z,400.00
2022-12-29T12:06:26.934Z,376.00
2022-12-29T12:07:26.924Z,360.00
2022-12-29T12:08:26.978Z,360.00
2022-12-29T12:09:26.926Z,360.00
2022-12-29T12:10:26.966Z,372.00
2022-12-29T12:11:26.908Z,384.00
2022-12-29T12:12:26.908Z,384.00
2022-12-29T12:13:26.901Z,404.00
2022-12-29T12:14:26.906Z,444.00
2022-12-29T12:15:26.906Z,476.00
2022-12-29T12:16:26.960Z,504.00
2022-12-29T12:17:26.884Z,524.00
2022-12-29T12:18:26.904Z,520.00
2022-12-29T12:19:26.883Z,516.00
2022-12-29T12:20:26.876Z,504.00
2022-12-29T12:21:26.862Z,488.00
2022-12-29T12:22:26.875Z,436.00
2022-12-29T12:23:26.865Z,420.00
2022-12-29T12:24:26.865Z,424.00
2022-12-29T12:25:26.885Z,424.00
2022-12-29T12:26:26.863Z,464.00
2022-12-29T12:27:26.836Z,592.00
2022-12-29T12:28:29.393Z,732.00
2022-12-29T12:29:26.850Z,876.00
2022-12-29T12:30:26.830Z,988.00
2022-12-29T12:31:26.895Z,904.00
2022-12-29T12:32:26.827Z,764.00
2022-12-29T12:33:26.827Z,652.00
2022-12-29T12:34:26.833Z,604.00
2022-12-29T12:35:26.805Z,628.00
2022-12-29T12:36:26.807Z,636.00
2022-12-29T12:37:26.795Z,632.00
2022-12-29T12:38:26.819Z,668.00
2022-12-29T12:39:26.803Z,676.00
2022-12-29T12:40:26.787Z,760.00
2022-12-29T12:41:26.797Z,796.00
2022-12-29T12:42:26.769Z,840.00
2022-12-29T12:43:26.771Z,892.00
2022-12-29T12:44:26.787Z,884.00
2022-12-29T12:45:26.767Z,832.00
2022-12-29T12:46:26.802Z,720.00
2022-12-29T12:47:26.804Z,580.00
2022-12-29T12:48:26.741Z,500.00
2022-12-29T12:49:26.742Z,476.00
2022-12-29T12:50:26.822Z,428.00
2022-12-29T12:51:26.730Z,360.00
2022-12-29T12:52:26.757Z,320.00
2022-12-29T12:53:26.718Z,356.00
2022-12-29T12:54:26.724Z,468.00
2022-12-29T12:55:26.711Z,596.00
2022-12-29T12:56:26.719Z,616.00
2022-12-29T12:57:26.722Z,688.00
2022-12-29T12:58:26.695Z,868.00
2022-12-29T12:59:26.701Z,976.00
2022-12-29T13:00:26.703Z,1188.00
2022-12-29T13:01:26.796Z,1340.00
2022-12-29T13:02:26.947Z,1456.00
2022-12-29T13:03:26.713Z,1532.00
2022-12-29T13:04:26.674Z,1600.00
2022-12-29T13:05:27.353Z,1448.00
2022-12-29T13:06:26.652Z,1492.00
2022-12-29T13:07:26.651Z,1484.00
2022-12-29T13:08:26.657Z,1464.00
2022-12-29T13:09:26.655Z,1432.00
2022-12-29T13:10:26.646Z,1388.00